Time;durP1;ratioP1;P1;durP2;ratioP2;P2;SDS_P1;SDS_P2;PMS_P1;PMS_P2;Temp;Humidity;BMP_temperature;BMP_pressure;BME280_temperature;BME280_humidity;BME280_pressure;Samples;Min_cycle;Max_cycle;Signal;HPM_P1;HPM_P2
2021/12/04 00:01:48;;;;;;;1.87;1.77;;;;;;;3.97;72.15;94378.22;5024457;28;20211;-63
2021/12/04 00:04:20;;;;;;;1.83;1.73;;;;;;;3.90;72.99;94392.72;5020800;28;20237;-63
2021/12/04 00:06:45;;;;;;;1.83;1.70;;;;;;;3.80;72.58;94381.41;5017045;28;20266;-62
2021/12/04 00:09:12;;;;;;;1.53;1.43;;;;;;;3.84;72.16;94374.16;5022558;28;20230;-63
2021/12/04 00:11:40;;;;;;;1.63;1.53;;;;;;;3.86;71.99;94370.50;5024525;28;20220;-64
2021/12/04 00:14:06;;;;;;;2.10;1.60;;;;;;;3.84;72.09;94363.78;5020514;28;20219;-64
2021/12/04 00:16:31;;;;;;;2.07;1.90;;;;;;;3.78;71.93;94359.91;5018087;28;20241;-62
2021/12/04 00:18:57;;;;;;;1.63;1.53;;;;;;;3.80;71.94;94384.00;5020911;28;20218;-63
2021/12/04 00:21:22;;;;;;;1.60;1.50;;;;;;;3.80;71.77;94378.81;5011373;28;20239;-64
2021/12/04 00:23:48;;;;;;;1.80;1.70;;;;;;;3.78;72.08;94367.69;5021758;28;20217;-64
2021/12/04 00:26:13;;;;;;;2.03;1.93;;;;;;;3.80;72.03;94372.78;5016712;28;20206;-64
2021/12/04 00:28:39;;;;;;;2.30;2.10;;;;;;;3.78;71.91;94375.50;5022149;28;20221;-67
2021/12/04 00:31:08;;;;;;;2.40;2.20;;;;;;;3.78;72.05;94372.91;5016088;28;20230;-64
2021/12/04 00:33:35;;;;;;;1.97;1.87;;;;;;;3.84;71.61;94374.16;5017125;28;20239;-63
2021/12/04 00:36:05;;;;;;;2.43;2.23;;;;;;;3.73;72.05;94378.47;5023312;28;20195;-63
2021/12/04 00:49:18;;;;;;;2.40;2.20;;;;;;;3.86;71.28;94378.28;5015714;28;20280;-64
2021/12/04 00:51:50;;;;;;;2.87;2.67;;;;;;;3.95;71.19;94377.53;5015337;28;20319;-64
2021/12/04 00:54:16;;;;;;;2.57;2.40;;;;;;;3.96;71.17;94384.38;5022440;28;20233;-63
2021/12/04 00:56:43;;;;;;;2.50;2.30;;;;;;;3.92;70.99;94382.97;5018520;28;20210;-66
2021/12/04 00:59:09;;;;;;;2.00;1.90;;;;;;;3.67;71.19;94372.97;5023269;28;20290;-64
2021/12/04 01:01:38;;;;;;;2.50;2.30;;;;;;;3.77;71.20;94368.66;5022988;28;20233;-64
2021/12/04 01:04:04;;;;;;;2.63;2.43;;;;;;;3.69;71.68;94363.28;5028169;28;20213;-63
2021/12/04 01:06:30;;;;;;;2.73;2.20;;;;;;;3.74;71.30;94363.69;5043204;28;20260;-66
2021/12/04 01:08:55;;;;;;;3.10;2.80;;;;;;;3.69;70.94;94356.28;5041665;28;20207;-63
2021/12/04 01:11:21;;;;;;;2.70;2.50;;;;;;;3.72;71.34;94352.63;5042820;28;20217;-62
2021/12/04 01:13:47;;;;;;;3.03;2.80;;;;;;;3.74;71.23;94342.88;5049528;28;20271;-62
2021/12/04 01:16:14;;;;;;;3.13;2.93;;;;;;;3.79;71.17;94330.34;5043306;28;20222;-64
2021/12/04 01:18:40;;;;;;;3.00;2.80;;;;;;;3.70;70.56;94331.09;5043273;28;20222;-63
2021/12/04 01:21:05;;;;;;;2.70;2.50;;;;;;;3.73;71.42;94339.47;5035152;28;20256;-63
2021/12/04 01:23:31;;;;;;;2.90;2.70;;;;;;;3.64;71.62;94326.44;5044620;28;20265;-63
2021/12/04 01:25:56;;;;;;;3.00;2.80;;;;;;;3.67;71.32;94320.97;5043510;28;20226;-66
2021/12/04 01:28:22;;;;;;;2.93;2.73;;;;;;;3.65;71.91;94328.06;5038562;28;20221;-64
2021/12/04 01:30:47;;;;;;;3.10;2.90;;;;;;;3.69;71.58;94324.28;5044605;28;20221;-63
2021/12/04 01:33:13;;;;;;;2.87;2.67;;;;;;;3.61;71.89;94306.72;5043538;28;20230;-64
2021/12/04 01:35:38;;;;;;;2.97;2.77;;;;;;;3.66;71.79;94306.31;5039435;28;20208;-64
2021/12/04 01:38:04;;;;;;;2.83;2.50;;;;;;;3.55;71.57;94307.19;5043493;28;20240;-64
2021/12/04 01:40:29;;;;;;;2.97;2.70;;;;;;;3.45;71.33;94319.31;5042111;28;20234;-63
2021/12/04 01:42:55;;;;;;;3.53;3.23;;;;;;;3.43;71.44;94318.63;5039287;28;20248;-63
2021/12/04 01:45:21;;;;;;;3.53;3.23;;;;;;;3.28;72.11;94328.47;5037984;28;20245;-63
2021/12/04 01:47:46;;;;;;;3.00;2.80;;;;;;;3.24;72.40;94319.28;5040327;28;20210;-66
2021/12/04 01:50:12;;;;;;;3.17;2.97;;;;;;;3.27;72.25;94319.03;5037424;28;20197;-63
2021/12/04 01:52:39;;;;;;;3.57;3.27;;;;;;;3.33;71.83;94320.31;5033774;28;20225;-63
2021/12/04 01:55:05;;;;;;;3.80;3.50;;;;;;;3.35;71.25;94329.63;5042273;28;20249;-63
2021/12/04 01:57:31;;;;;;;3.53;3.23;;;;;;;3.46;70.85;94329.56;5041686;28;20241;-63
2021/12/04 01:59:57;;;;;;;4.00;3.60;;;;;;;3.27;71.67;94314.66;5042952;28;20228;-63
2021/12/04 02:02:22;;;;;;;4.00;3.70;;;;;;;3.43;71.46;94322.03;5042702;28;20202;-62
2021/12/04 02:04:48;;;;;;;4.30;3.97;;;;;;;3.48;70.81;94325.09;5050250;28;20221;-63
2021/12/04 02:07:15;;;;;;;3.97;3.67;;;;;;;3.41;71.47;94326.53;5044570;28;20233;-63
2021/12/04 02:09:40;;;;;;;4.10;3.80;;;;;;;3.41;71.15;94333.50;5044983;28;20248;-63
2021/12/04 02:12:07;;;;;;;4.20;3.80;;;;;;;3.45;70.89;94338.34;5041720;28;20293;-64
2021/12/04 02:14:38;;;;;;;4.23;3.93;;;;;;;3.43;70.84;94323.81;5043968;28;20209;-63
2021/12/04 02:17:04;;;;;;;4.40;4.00;;;;;;;3.39;71.08;94320.63;5037352;28;20230;-64
2021/12/04 02:19:30;;;;;;;4.70;4.30;;;;;;;3.41;70.87;94331.72;5042059;28;20214;-64
2021/12/04 02:21:56;;;;;;;4.73;4.33;;;;;;;3.41;71.02;94334.31;5049749;28;20209;-64
2021/12/04 02:24:22;;;;;;;4.53;4.13;;;;;;;3.44;70.73;94333.25;5043223;28;20229;-64
2021/12/04 02:26:48;;;;;;;5.17;4.77;;;;;;;3.44;70.73;94326.25;5037766;28;20194;-64
2021/12/04 02:29:14;;;;;;;4.90;4.50;;;;;;;3.38;70.47;94318.16;5046794;28;20217;-64
2021/12/04 02:31:49;;;;;;;4.43;4.10;;;;;;;3.28;71.16;94307.69;5039193;28;20237;-64
2021/12/04 02:34:20;;;;;;;4.60;4.20;;;;;;;3.25;70.86;94313.94;5032234;28;20236;-64
2021/12/04 02:36:46;;;;;;;4.57;4.13;;;;;;;3.28;71.24;94323.28;5041007;28;20226;-66
2021/12/04 02:39:24;;;;;;;4.77;4.37;;;;;;;3.31;71.02;94326.47;5043447;28;20236;-66
2021/12/04 02:41:50;;;;;;;4.80;4.40;;;;;;;3.37;70.94;94330.34;5044478;28;20216;-63
2021/12/04 02:44:16;;;;;;;4.30;4.00;;;;;;;3.39;70.34;94315.41;5045192;28;20209;-63
2021/12/04 02:46:41;;;;;;;4.10;3.77;;;;;;;3.39;69.79;94317.19;5043739;28;20221;-65
2021/12/04 02:49:09;;;;;;;5.17;4.67;;;;;;;3.40;70.05;94324.06;5042885;28;20248;-64
2021/12/04 02:51:35;;;;;;;4.47;4.17;;;;;;;3.36;70.42;94323.47;5029947;28;20234;-65
2021/12/04 02:54:00;;;;;;;4.73;4.33;;;;;;;3.46;70.60;94324.38;5042681;28;20234;-64
2021/12/04 02:56:26;;;;;;;4.77;4.37;;;;;;;3.48;70.24;94312.09;5041166;28;20217;-66
2021/12/04 02:58:55;;;;;;;4.07;3.77;;;;;;;3.55;70.19;94307.19;5040954;28;20230;-64
2021/12/04 03:01:20;;;;;;;5.03;4.63;;;;;;;3.46;70.45;94294.97;5040852;28;20214;-64
2021/12/04 03:03:47;;;;;;;4.70;4.30;;;;;;;3.43;70.29;94292.63;5038252;28;20356;-64
2021/12/04 03:06:13;;;;;;;4.43;4.03;;;;;;;3.50;70.95;94294.59;5036698;28;20222;-63
2021/12/04 03:08:38;;;;;;;5.60;5.10;;;;;;;3.63;70.60;94298.75;5040655;28;20226;-63
2021/12/04 03:11:04;;;;;;;4.93;4.43;;;;;;;3.55;70.74;94304.59;5034501;28;20214;-65
2021/12/04 03:13:29;;;;;;;5.03;4.63;;;;;;;3.68;70.23;94297.44;5043359;28;20226;-66
2021/12/04 03:15:59;;;;;;;5.83;4.50;;;;;;;3.78;70.82;94305.28;5042848;28;20230;-65
2021/12/04 03:18:28;;;;;;;5.83;5.33;;;;;;;3.66;70.78;94309.75;5042479;28;20244;-64
2021/12/04 03:20:55;;;;;;;5.40;4.90;;;;;;;3.48;72.20;94301.69;5033366;28;20284;-66
2021/12/04 03:23:34;;;;;;;5.47;4.90;;;;;;;3.52;72.31;94303.06;5038395;28;20217;-63
2021/12/04 03:26:01;;;;;;;5.63;5.13;;;;;;;3.50;72.71;94305.00;5044583;28;20229;-66
2021/12/04 03:28:27;;;;;;;4.93;4.53;;;;;;;3.48;72.61;94312.09;5045526;28;20230;-65
2021/12/04 03:41:59;;;;;;;6.10;5.50;;;;;;;3.35;72.71;94321.84;4960215;28;20248;-62
2021/12/04 03:44:24;;;;;;;6.70;6.20;;;;;;;3.24;72.48;94325.31;4945769;28;20235;-62
2021/12/04 03:46:50;;;;;;;6.53;5.93;;;;;;;3.19;72.44;94321.44;4948793;29;20579;-65
2021/12/04 03:49:16;;;;;;;7.00;6.40;;;;;;;3.14;73.18;94320.97;4963861;28;20254;-64
2021/12/04 03:51:41;;;;;;;7.17;6.47;;;;;;;3.18;73.01;94317.16;4947418;29;20288;-63
2021/12/04 03:54:07;;;;;;;6.93;6.20;;;;;;;3.25;73.34;94318.31;4964575;28;20254;-63
2021/12/04 03:56:32;;;;;;;6.20;5.70;;;;;;;3.10;73.14;94317.78;4948884;29;20204;-63
2021/12/04 03:58:58;;;;;;;6.23;5.73;;;;;;;3.04;73.84;94323.47;4962593;28;20228;-66
2021/12/04 04:01:24;;;;;;;6.53;5.93;;;;;;;3.09;73.55;94332.56;4965385;28;20236;-65
2021/12/04 04:03:50;;;;;;;7.37;6.63;;;;;;;3.02;73.50;94331.41;4946674;28;20232;-64
2021/12/04 04:06:16;;;;;;;6.63;6.03;;;;;;;2.94;74.27;94320.81;4963944;28;20243;-63
2021/12/04 04:08:41;;;;;;;6.60;6.00;;;;;;;2.87;73.93;94332.63;4964221;28;20224;-63
2021/12/04 04:11:07;;;;;;;7.07;6.33;;;;;;;2.82;74.17;94347.75;4948143;29;20224;-64
2021/12/04 04:13:33;;;;;;;7.43;6.50;;;;;;;2.79;74.40;94337.59;5004036;28;20260;-65
2021/12/04 04:16:00;;;;;;;7.03;6.40;;;;;;;2.81;74.16;94335.72;5043504;28;20276;-66
2021/12/04 04:18:27;;;;;;;7.73;7.03;;;;;;;2.87;74.22;94333.44;5040180;28;20225;-66
2021/12/04 04:20:53;;;;;;;7.10;6.40;;;;;;;2.86;74.31;94349.13;5044224;28;20202;-66
2021/12/04 04:23:19;;;;;;;7.30;6.70;;;;;;;2.76;74.52;94348.25;5039528;28;20205;-67
2021/12/04 04:25:44;;;;;;;7.03;6.43;;;;;;;2.80;73.99;94344.44;5044300;28;20257;-66
2021/12/04 04:28:10;;;;;;;7.00;6.40;;;;;;;2.77;74.24;94348.09;5042318;28;20229;-66
2021/12/04 04:30:36;;;;;;;6.73;6.13;;;;;;;2.76;74.42;94348.25;5040369;28;20275;-66
2021/12/04 04:33:03;;;;;;;7.70;6.17;;;;;;;2.72;74.08;94346.81;5044559;28;20220;-64
2021/12/04 04:35:31;;;;;;;6.10;5.60;;;;;;;2.73;73.79;94353.69;5049053;28;20216;-64
2021/12/04 04:38:08;;;;;;;7.20;6.50;;;;;;;2.89;73.48;94361.91;5046036;28;20217;-66
2021/12/04 05:13:02;;;;;;;7.43;6.77;;;;;;;2.75;72.84;94351.75;5025153;28;20222;-65
2021/12/04 05:20:54;;;;;;;6.67;6.07;;;;;;;2.81;73.03;94366.88;5025434;28;20227;-63
2021/12/04 05:23:21;;;;;;;6.27;5.63;;;;;;;2.87;72.01;94363.78;5022455;28;20237;-63
2021/12/04 05:25:47;;;;;;;6.17;5.57;;;;;;;2.84;71.41;94356.25;5009600;28;20219;-67
2021/12/04 05:28:13;;;;;;;6.00;5.40;;;;;;;2.88;71.99;94347.25;5025689;28;20273;-63
2021/12/04 05:30:38;;;;;;;7.17;6.53;;;;;;;2.91;72.29;94362.59;5010823;28;20261;-64
2021/12/04 05:33:05;;;;;;;6.50;5.90;;;;;;;2.82;72.54;94355.53;5024259;28;20275;-66
2021/12/04 05:35:31;;;;;;;6.17;5.60;;;;;;;2.95;71.96;94360.59;5002922;28;20246;-64
2021/12/04 05:37:57;;;;;;;6.90;6.20;;;;;;;3.00;71.84;94368.84;5023316;28;20226;-64
2021/12/04 05:40:23;;;;;;;6.53;5.93;;;;;;;2.96;71.95;94362.22;5021439;28;20234;-62
2021/12/04 05:42:48;;;;;;;6.70;6.10;;;;;;;2.90;71.32;94362.72;4996789;28;20229;-63
2021/12/04 05:45:21;;;;;;;6.60;6.00;;;;;;;2.91;71.44;94362.59;5009509;28;20222;-63
2021/12/04 05:47:57;;;;;;;6.50;5.90;;;;;;;2.89;71.82;94361.91;5017476;28;20212;-68
2021/12/04 05:53:26;;;;;;;6.87;6.27;;;;;;;2.70;73.23;94367.72;4966326;28;20349;-62
2021/12/04 05:55:58;;;;;;;7.43;6.73;;;;;;;2.69;73.25;94370.41;4969894;28;20232;-63
2021/12/04 05:58:29;;;;;;;6.90;6.27;;;;;;;2.61;73.79;94369.25;4969229;28;20240;-62
2021/12/04 06:00:57;;;;;;;7.17;6.47;;;;;;;2.67;73.62;94367.13;4966885;28;20239;-62
2021/12/04 06:03:24;;;;;;;8.13;7.33;;;;;;;2.60;74.05;94361.59;4954563;28;20220;-63
2021/12/04 06:05:49;;;;;;;8.40;7.20;;;;;;;2.63;74.00;94369.13;4971270;28;20203;-63
2021/12/04 06:08:15;;;;;;;8.23;7.53;;;;;;;2.62;73.78;94375.28;4966531;28;20212;-62
2021/12/04 06:10:41;;;;;;;7.70;7.00;;;;;;;2.55;74.27;94374.91;4980023;28;20227;-64
2021/12/04 06:13:07;;;;;;;8.70;7.87;;;;;;;2.64;74.29;94387.16;4955703;28;20247;-63
2021/12/04 06:15:33;;;;;;;8.57;7.77;;;;;;;2.61;74.44;94384.81;4965773;28;20236;-62
2021/12/04 06:17:58;;;;;;;8.70;7.80;;;;;;;2.61;74.45;94390.00;4972755;28;20213;-63
2021/12/04 06:23:09;;;;;;;9.80;8.90;;;;;;;2.60;74.37;94383.19;4970665;28;20266;-64
2021/12/04 06:25:35;;;;;;;9.60;8.27;;;;;;;2.63;74.77;94385.53;4970753;28;20285;-65
2021/12/04 06:28:01;;;;;;;9.90;7.77;;;;;;;2.70;74.32;94392.81;4960374;28;20252;-64
2021/12/04 06:30:27;;;;;;;9.50;8.50;;;;;;;2.80;74.73;94385.97;5041096;28;20293;-63
2021/12/04 06:32:54;;;;;;;9.93;9.03;;;;;;;2.77;74.30;94391.41;5033886;28;20209;-64
2021/12/04 06:35:22;;;;;;;9.30;8.40;;;;;;;2.78;73.98;94395.66;5027621;28;20317;-67
2021/12/04 06:37:48;;;;;;;9.27;8.47;;;;;;;2.72;74.51;94388.34;5038182;28;20233;-61
2021/12/04 06:40:15;;;;;;;9.20;8.30;;;;;;;2.79;74.27;94398.13;5041798;28;20226;-65
2021/12/04 06:42:41;;;;;;;9.53;8.53;;;;;;;2.87;74.45;94406.16;5041293;28;20238;-64
2021/12/04 06:45:08;;;;;;;9.93;9.00;;;;;;;2.92;73.33;94402.38;5032891;28;20289;-67
2021/12/04 06:47:36;;;;;;;9.07;8.17;;;;;;;2.93;73.08;94410.03;5040757;28;20197;-66
2021/12/04 06:50:07;;;;;;;9.80;8.80;;;;;;;3.03;73.38;94415.34;5043516;28;20268;-64
2021/12/04 06:52:33;;;;;;;10.10;9.10;;;;;;;3.13;73.06;94415.44;5041143;28;20237;-63
2021/12/04 06:55:02;;;;;;;9.93;8.93;;;;;;;3.08;72.92;94414.03;5041953;28;20245;-64
2021/12/04 06:57:29;;;;;;;9.63;8.73;;;;;;;3.21;72.87;94408.69;5045605;28;20420;-62
2021/12/04 06:59:56;;;;;;;12.17;10.00;;;;;;;3.32;72.08;94400.03;5040488;28;20243;-62
2021/12/04 07:02:22;;;;;;;9.70;8.70;;;;;;;3.35;71.81;94410.19;5043578;28;20230;-63
2021/12/04 07:04:47;;;;;;;9.27;8.37;;;;;;;3.45;71.00;94405.09;5035702;28;20222;-64
2021/12/04 07:07:14;;;;;;;12.90;8.87;;;;;;;3.51;70.66;94399.38;5050165;28;20252;-63
2021/12/04 07:09:41;;;;;;;10.33;9.33;;;;;;;3.58;70.11;94412.69;5039166;28;20226;-63
2021/12/04 07:12:09;;;;;;;9.97;8.97;;;;;;;3.46;70.58;94417.13;5036794;28;20240;-65
2021/12/04 07:14:35;;;;;;;10.10;9.10;;;;;;;3.42;70.82;94420.91;5042476;28;20225;-66
2021/12/04 07:17:03;;;;;;;11.00;9.83;;;;;;;3.37;70.82;94425.63;5038160;28;20250;-65
2021/12/04 07:19:30;;;;;;;9.37;8.57;;;;;;;3.35;70.32;94427.56;5041739;28;20257;-65
2021/12/04 07:21:55;;;;;;;10.90;9.80;;;;;;;3.28;70.40;94427.22;5027472;28;20237;-65
2021/12/04 07:24:21;;;;;;;10.30;9.40;;;;;;;3.32;70.02;94428.63;5043407;28;20252;-66
2021/12/04 07:26:47;;;;;;;11.50;10.30;;;;;;;3.32;70.53;94431.22;5036956;28;20217;-68
2021/12/04 07:29:13;;;;;;;10.27;9.27;;;;;;;3.22;70.50;94440.69;5050682;28;20214;-65
2021/12/04 07:31:38;;;;;;;10.33;9.30;;;;;;;3.27;70.88;94435.97;5038093;28;20222;-68
2021/12/04 07:34:05;;;;;;;10.43;9.43;;;;;;;3.33;70.41;94432.03;5037340;28;20217;-66
2021/12/04 07:36:30;;;;;;;10.30;9.37;;;;;;;3.39;70.26;94439.34;5040581;28;20287;-63
2021/12/04 07:38:56;;;;;;;9.90;9.00;;;;;;;3.48;69.77;94421.25;5039223;28;20230;-63
2021/12/04 07:41:22;;;;;;;8.77;7.97;;;;;;;3.41;69.96;94417.47;5034678;28;20201;-63
2021/12/04 07:43:48;;;;;;;9.83;8.83;;;;;;;3.48;69.48;94405.66;5042017;28;20285;-66
2021/12/04 07:46:14;;;;;;;9.70;8.70;;;;;;;3.56;69.12;94394.63;5041796;28;20226;-62
2021/12/04 07:48:40;;;;;;;10.20;9.20;;;;;;;3.81;68.91;94396.06;5034801;28;20264;-64
2021/12/04 07:51:06;;;;;;;10.10;9.10;;;;;;;3.96;68.13;94378.38;5041299;28;20222;-65
2021/12/04 07:53:32;;;;;;;10.20;9.20;;;;;;;4.25;68.11;94372.50;5043355;28;20222;-64
2021/12/04 07:55:59;;;;;;;10.00;9.00;;;;;;;4.45;67.26;94376.03;5040535;28;20321;-65
2021/12/04 07:58:25;;;;;;;9.83;8.93;;;;;;;4.39;66.50;94362.56;5040313;28;20230;-65
2021/12/04 08:00:50;;;;;;;11.07;9.97;;;;;;;4.34;67.02;94372.53;5045878;28;20260;-63
2021/12/04 08:03:16;;;;;;;11.00;9.90;;;;;;;4.27;67.20;94366.19;5041006;28;20228;-65
2021/12/04 08:05:43;;;;;;;11.13;10.03;;;;;;;4.45;67.15;94357.81;5054631;28;20202;-63
2021/12/04 08:08:09;;;;;;;9.97;9.07;;;;;;;4.36;66.42;94352.44;5045226;28;20222;-64
2021/12/04 08:10:35;;;;;;;9.77;8.77;;;;;;;4.32;66.29;94347.59;5034361;28;20217;-64
2021/12/04 08:13:02;;;;;;;10.43;9.43;;;;;;;4.37;66.82;94361.88;5039805;28;20214;-64
2021/12/04 08:15:29;;;;;;;10.33;9.30;;;;;;;4.57;66.30;94356.72;5038577;28;20242;-64
2021/12/04 08:17:55;;;;;;;12.00;10.43;;;;;;;4.48;66.64;94349.72;5034910;28;20238;-65
2021/12/04 08:20:21;;;;;;;11.83;10.53;;;;;;;4.53;66.44;94356.19;5037784;28;20218;-64
2021/12/04 08:22:47;;;;;;;10.80;9.70;;;;;;;4.55;66.29;94354.28;5040743;28;20249;-65
2021/12/04 08:25:15;;;;;;;10.33;9.33;;;;;;;4.54;66.29;94362.22;5036146;28;20252;-65
2021/12/04 08:27:42;;;;;;;11.23;10.03;;;;;;;4.63;65.50;94367.47;5040928;28;20230;-63
2021/12/04 08:30:12;;;;;;;11.20;9.73;;;;;;;4.63;65.91;94377.88;5043283;28;20323;-64
2021/12/04 08:32:37;;;;;;;10.70;9.70;;;;;;;4.72;65.79;94370.22;5034874;28;20293;-63
2021/12/04 08:35:05;;;;;;;10.23;9.30;;;;;;;4.67;65.64;94375.81;5039221;28;20226;-64
2021/12/04 08:37:31;;;;;;;11.63;10.53;;;;;;;4.75;65.49;94381.19;5037298;28;20226;-64
2021/12/04 08:39:56;;;;;;;11.97;10.67;;;;;;;4.71;65.61;94369.41;5038092;28;20217;-66
2021/12/04 08:42:24;;;;;;;11.83;10.43;;;;;;;4.82;65.55;94365.88;5040761;28;20218;-65
2021/12/04 08:44:50;;;;;;;10.70;9.57;;;;;;;4.91;64.74;94364.25;5040902;28;20206;-64
2021/12/04 08:47:15;;;;;;;11.30;10.10;;;;;;;4.95;64.37;94350.84;5032301;28;20205;-64
2021/12/04 08:49:43;;;;;;;11.23;10.20;;;;;;;5.18;64.18;94345.38;5034169;28;20226;-65
2021/12/04 08:52:10;;;;;;;12.00;10.63;;;;;;;5.30;63.87;94342.50;5039967;28;20257;-63
2021/12/04 08:54:37;;;;;;;14.77;11.47;;;;;;;5.55;64.32;94337.72;5035529;28;20234;-64
2021/12/04 08:57:04;;;;;;;13.87;12.13;;;;;;;5.73;63.67;94335.22;5031180;28;20214;-63
2021/12/04 08:59:32;;;;;;;14.67;13.20;;;;;;;5.72;64.71;94328.34;5042713;28;20260;-64
2021/12/04 09:01:58;;;;;;;14.83;13.33;;;;;;;5.66;64.34;94326.31;5039345;28;20240;-61
2021/12/04 09:04:27;;;;;;;14.67;13.27;;;;;;;5.90;64.25;94331.09;5044618;28;20233;-62
2021/12/04 09:06:54;;;;;;;16.90;15.10;;;;;;;5.88;62.73;94341.69;5045173;28;20273;-61
2021/12/04 09:09:21;;;;;;;15.03;13.53;;;;;;;5.84;61.99;94342.09;5042592;28;20218;-60
2021/12/04 09:11:53;;;;;;;12.90;10.67;;;;;;;5.71;62.89;94343.19;5042553;28;20209;-65
2021/12/04 09:14:23;;;;;;;12.30;11.10;;;;;;;5.57;63.34;94341.00;5044754;28;20206;-59
2021/12/04 09:16:51;;;;;;;11.40;10.20;;;;;;;5.44;63.92;94332.63;5039453;28;20222;-61
2021/12/04 09:19:17;;;;;;;12.40;11.10;;;;;;;5.60;63.41;94334.69;5040670;28;20224;-62
2021/12/04 09:21:43;;;;;;;13.40;11.30;;;;;;;5.52;63.74;94343.19;5046913;28;20249;-61
2021/12/04 09:24:17;;;;;;;13.90;12.53;;;;;;;5.62;63.46;94338.81;5039114;28;20222;-61
2021/12/04 10:14:12;;;;;;;10.67;9.37;;;;;;;5.51;64.67;94352.00;4982545;28;20235;-63
2021/12/04 10:22:21;;;;;;;11.13;9.30;;;;;;;5.48;64.04;94326.16;4981997;28;20275;-63
2021/12/04 10:33:17;;;;;;;10.20;9.10;;;;;;;5.55;63.57;94310.81;4981216;28;20246;-64
2021/12/04 10:35:44;;;;;;;15.10;11.43;;;;;;;5.63;64.00;94303.13;4982436;28;20292;-67
2021/12/04 10:38:22;;;;;;;14.97;11.87;;;;;;;5.65;63.39;94307.22;4985903;28;20211;-66
2021/12/04 10:40:50;;;;;;;16.57;11.83;;;;;;;5.47;64.02;94295.84;4976862;28;20220;-63
2021/12/04 10:43:22;;;;;;;12.90;10.67;;;;;;;5.60;63.60;94304.22;5003036;28;20277;-63
2021/12/04 10:45:54;;;;;;;11.83;10.63;;;;;;;5.58;64.23;94308.75;5035633;28;20275;-64
2021/12/04 10:48:24;;;;;;;13.80;12.33;;;;;;;5.66;64.23;94310.66;5035449;28;20214;-64
2021/12/04 10:51:09;;;;;;;10.97;9.87;;;;;;;5.72;63.63;94318.75;5036571;28;20266;-64
2021/12/04 10:53:47;;;;;;;12.00;10.20;;;;;;;5.72;63.74;94315.31;5048301;28;20227;-64
2021/12/04 11:04:53;;;;;;;9.57;8.67;;;;;;;5.82;64.82;94315.31;5019129;28;20221;-67
2021/12/04 11:40:30;;;;;;;11.57;9.53;;;;;;;6.09;64.12;94294.53;5042625;28;20214;-63
2021/12/04 11:43:01;;;;;;;14.60;11.73;;;;;;;6.25;64.43;94293.09;5042663;28;20218;-63
2021/12/04 11:45:42;;;;;;;13.30;10.70;;;;;;;6.37;63.47;94286.75;5040818;28;20245;-64
2021/12/04 11:48:08;;;;;;;13.33;11.57;;;;;;;6.41;63.60;94290.69;5038696;28;20220;-62
2021/12/04 11:50:51;;;;;;;14.03;11.57;;;;;;;6.27;63.85;94288.56;5041483;28;20206;-62
2021/12/04 11:53:17;;;;;;;12.77;11.13;;;;;;;6.22;63.54;94281.16;5041945;28;20229;-62
2021/12/04 11:55:46;;;;;;;12.70;11.40;;;;;;;6.13;63.77;94284.63;5035036;28;20229;-62
2021/12/04 11:58:20;;;;;;;14.13;12.63;;;;;;;6.00;64.15;94300.59;5028258;28;20218;-62
2021/12/04 12:00:47;;;;;;;13.17;11.77;;;;;;;5.95;64.81;94300.19;5051076;28;20401;-62
2021/12/04 12:03:19;;;;;;;13.87;12.03;;;;;;;5.89;64.90;94303.34;5047911;28;20218;-62
2021/12/04 12:05:47;;;;;;;14.77;12.43;;;;;;;5.88;64.75;94301.69;5041081;28;20202;-63
2021/12/04 12:08:28;;;;;;;13.33;11.77;;;;;;;5.83;65.26;94299.53;5041572;28;20268;-62
2021/12/04 12:11:00;;;;;;;14.10;12.60;;;;;;;5.92;65.55;94295.25;5043079;28;20288;-62
2021/12/04 12:13:30;;;;;;;13.83;12.17;;;;;;;5.99;65.11;94300.72;5041488;28;20281;-61
2021/12/04 12:16:15;;;;;;;14.03;12.60;;;;;;;6.07;64.44;94298.25;5039308;28;20239;-62
2021/12/04 12:19:01;;;;;;;16.50;14.33;;;;;;;6.02;64.80;94292.66;5042167;28;20232;-63
2021/12/04 12:21:39;;;;;;;14.90;13.30;;;;;;;5.87;65.03;94295.66;5040809;28;20292;-62
2021/12/04 12:27:04;;;;;;;13.93;12.43;;;;;;;5.85;64.95;94297.56;5031284;28;20209;-63
2021/12/04 12:38:33;;;;;;;17.07;14.37;;;;;;;5.86;65.32;94309.66;5046218;28;20233;-62
2021/12/04 12:41:04;;;;;;;17.57;15.40;;;;;;;5.81;65.49;94303.22;5045658;28;20221;-63
2021/12/04 12:44:02;;;;;;;16.63;13.90;;;;;;;5.93;65.16;94300.38;5044198;28;20218;-63
2021/12/04 12:46:43;;;;;;;15.33;13.73;;;;;;;5.82;65.62;94297.84;4999979;28;20298;-62
2021/12/04 12:49:34;;;;;;;14.23;12.80;;;;;;;5.90;65.69;94294.56;4986936;28;20223;-63
2021/12/04 12:52:10;;;;;;;15.67;14.00;;;;;;;5.94;65.63;94298.56;4981925;28;20223;-64
2021/12/04 12:54:38;;;;;;;15.57;13.57;;;;;;;5.95;65.21;94287.16;4986311;28;20281;-64
2021/12/04 12:57:20;;;;;;;15.50;13.53;;;;;;;5.86;65.81;94299.25;4993966;28;20212;-63
2021/12/04 13:13:51;;;;;;;19.00;14.87;;;;;;;5.74;66.54;94322.03;5004217;28;20234;-62
2021/12/04 13:16:21;;;;;;;16.57;14.23;;;;;;;5.73;66.12;94315.19;4987750;28;20219;-64
2021/12/04 13:18:58;;;;;;;17.63;14.00;;;;;;;5.72;66.48;94321.38;5003643;28;20223;-61
2021/12/04 13:21:24;;;;;;;15.20;13.57;;;;;;;5.67;66.13;94320.16;4985079;28;20263;-63
2021/12/04 13:23:53;;;;;;;16.00;14.30;;;;;;;5.65;66.68;94319.44;5025668;28;20217;-62
2021/12/04 13:26:24;;;;;;;17.87;13.77;;;;;;;5.71;67.10;94309.28;5039912;28;20210;-63
2021/12/04 13:28:50;;;;;;;14.87;13.03;;;;;;;5.77;66.59;94312.28;5041660;28;20225;-64
2021/12/04 13:31:18;;;;;;;15.73;13.67;;;;;;;5.67;66.35;94305.31;5044628;28;20214;-63
2021/12/04 13:33:47;;;;;;;21.13;13.63;;;;;;;5.72;66.16;94304.88;5049815;28;20241;-63
2021/12/04 13:36:21;;;;;;;19.07;14.27;;;;;;;5.65;66.39;94315.06;5047743;28;20231;-64
2021/12/04 13:38:50;;;;;;;17.67;15.03;;;;;;;5.69;66.10;94312.97;5043536;28;20268;-64
2021/12/04 13:41:16;;;;;;;16.40;13.97;;;;;;;5.53;66.44;94303.97;5041016;28;20210;-62
2021/12/04 13:43:41;;;;;;;17.13;13.57;;;;;;;5.68;66.62;94293.09;5042255;28;20236;-63
2021/12/04 13:46:07;;;;;;;14.90;12.63;;;;;;;5.77;65.96;94305.28;5040335;28;20248;-63
2021/12/04 13:48:34;;;;;;;16.50;13.23;;;;;;;5.69;66.12;94297.34;5033585;28;20529;-62
2021/12/04 13:51:00;;;;;;;16.90;14.50;;;;;;;5.64;66.56;94305.59;5052721;28;20225;-64
2021/12/04 13:53:34;;;;;;;17.23;13.27;;;;;;;5.67;66.51;94300.09;5042850;28;20214;-63
2021/12/04 13:56:09;;;;;;;17.83;15.93;;;;;;;5.64;66.31;94295.16;5016757;28;20273;-62
2021/12/04 13:58:46;;;;;;;18.93;15.83;;;;;;;5.63;67.07;94300.50;5036207;28;20276;-63
2021/12/04 14:01:12;;;;;;;19.40;14.93;;;;;;;5.70;66.66;94293.78;5043457;28;20229;-62
2021/12/04 14:03:38;;;;;;;17.77;15.13;;;;;;;5.77;66.89;94307.06;5036703;28;20385;-63
2021/12/04 14:06:13;;;;;;;19.67;15.83;;;;;;;5.73;66.39;94289.09;5040070;28;20269;-63
2021/12/04 14:08:40;;;;;;;17.70;15.00;;;;;;;5.67;66.84;94289.66;5040519;28;20221;-63
2021/12/04 14:11:05;;;;;;;19.40;15.80;;;;;;;5.74;66.44;94290.72;5051126;28;20234;-63
2021/12/04 14:13:31;;;;;;;22.87;16.00;;;;;;;5.68;66.47;94283.47;5036739;28;20552;-63
2021/12/04 14:15:57;;;;;;;16.73;14.93;;;;;;;5.78;66.48;94282.66;5041881;28;20233;-66
2021/12/04 14:18:26;;;;;;;19.33;15.23;;;;;;;5.73;66.45;94290.88;5043768;28;20218;-63
2021/12/04 14:21:00;;;;;;;18.97;15.03;;;;;;;5.68;66.18;94280.03;5042256;28;20233;-62
2021/12/04 14:23:27;;;;;;;21.57;18.73;;;;;;;5.56;66.46;94274.19;5042345;28;20328;-63
2021/12/04 14:25:55;;;;;;;19.67;16.23;;;;;;;5.49;67.20;94273.06;5043277;28;20226;-63
2021/12/04 14:28:32;;;;;;;20.90;17.30;;;;;;;5.59;66.82;94279.09;5041023;28;20237;-63
2021/12/04 14:30:58;;;;;;;58.30;31.10;;;;;;;5.58;67.45;94280.06;5042039;28;20253;-63
2021/12/04 14:33:25;;;;;;;25.33;20.33;;;;;;;5.63;67.70;94288.28;5042695;28;20226;-63
2021/12/04 14:35:52;;;;;;;19.23;16.67;;;;;;;5.59;67.45;94275.69;5039536;28;20241;-63
2021/12/04 14:38:25;;;;;;;23.07;17.43;;;;;;;5.66;67.54;94281.97;5041814;28;20221;-63
2021/12/04 14:41:05;;;;;;;21.73;17.40;;;;;;;5.69;67.71;94286.91;5043610;28;20237;-62
2021/12/04 14:43:36;;;;;;;21.53;18.77;;;;;;;5.61;67.97;94287.59;5029350;28;20229;-62
2021/12/04 14:46:05;;;;;;;25.43;18.50;;;;;;;5.63;68.31;94293.50;5041553;28;20222;-64
2021/12/04 14:48:42;;;;;;;24.97;19.50;;;;;;;5.60;68.42;94296.38;5035064;28;20225;-62
2021/12/04 14:51:20;;;;;;;22.83;18.33;;;;;;;5.59;68.43;94291.34;5034844;28;20229;-66
2021/12/04 14:53:53;;;;;;;21.60;18.17;;;;;;;5.60;68.23;94293.78;5036676;28;20268;-62